Chelsea, Massachusetts
Current Conditions -  °F | °C
As of 2:54 PM on Monday 26 Jan 2015 (Local Time) from KBOS Reporting Station
Overcast Overcast  
Wind Chill: 15°   Ceiling: 2700
Heat Index: 28°   Visibility: 10mi
Dew Point: 21°   Wind: 18mph
Humidity: 75%   Direction: 50°NE
Pressure: 30.05"   Gusts: 28mph
Location:  42.39°N, 71.03°W
Report Text: KBOS 261954Z 05016G24KT 10SM SCT018 OVC027 M02/M06 A3005 RMK AO2 SNE38 SLP175 P0000 T10221061
Loading
Personal Weather Stations






























Interactive Weather Map New forecast layout! Learn more

10-Day Weather Forecast

Advertisements
Track Severe Weather on mobile